Time;durP1;ratioP1;P1;durP2;ratioP2;P2;SDS_P1;SDS_P2;PMS_P1;PMS_P2;Temp;Humidity;BMP_temperature;BMP_pressure;BME280_temperature;BME280_humidity;BME280_pressure;Samples;Min_cycle;Max_cycle;Signal;HPM_P1;HPM_P2
2019/07/12 00:00:00;;;;;;;19.4;17.4;;;;;;;;;;;;;
2019/07/12 00:02:25;;;;;;;19;17;;;;;;;;;;;;;
2019/07/12 00:04:51;;;;;;;18.8;17;;;;;;;;;;;;;
2019/07/12 00:07:16;;;;;;;19.8;17.7;;;;;;;;;;;;;
2019/07/12 00:09:41;;;;;;;20.6;18.4;;;;;;;;;;;;;
2019/07/12 00:12:06;;;;;;;18.1;16.4;;;;;;;;;;;;;
2019/07/12 00:14:31;;;;;;;18.2;16.4;;;;;;;;;;;;;
2019/07/12 00:16:56;;;;;;;18.4;16.1;;;;;;;;;;;;;
2019/07/12 00:19:21;;;;;;;19.2;16.7;;;;;;;;;;;;;
2019/07/12 00:21:46;;;;;;;19.4;15.9;;;;;;;;;;;;;
2019/07/12 00:24:12;;;;;;;21.8;17.7;;;;;;;;;;;;;
2019/07/12 00:26:37;;;;;;;18.4;16.6;;;;;;;;;;;;;
2019/07/12 00:29:02;;;;;;;17.9;16.2;;;;;;;;;;;;;
2019/07/12 00:31:27;;;;;;;19.9;17.8;;;;;;;;;;;;;
2019/07/12 00:33:52;;;;;;;18.3;16.3;;;;;;;;;;;;;
2019/07/12 00:36:17;;;;;;;19.9;17.3;;;;;;;;;;;;;
2019/07/12 00:38:42;;;;;;;21;17.8;;;;;;;;;;;;;
2019/07/12 00:41:07;;;;;;;22.1;17.3;;;;;;;;;;;;;
2019/07/12 00:43:32;;;;;;;17.9;16;;;;;;;;;;;;;
2019/07/12 00:45:57;;;;;;;19.3;16.9;;;;;;;;;;;;;
2019/07/12 00:48:22;;;;;;;18.9;16.5;;;;;;;;;;;;;
2019/07/12 00:50:48;;;;;;;17.5;15.7;;;;;;;;;;;;;
2019/07/12 00:53:13;;;;;;;20.1;17.1;;;;;;;;;;;;;
2019/07/12 00:55:38;;;;;;;17.4;15.6;;;;;;;;;;;;;
2019/07/12 00:58:03;;;;;;;21.5;17.7;;;;;;;;;;;;;
2019/07/12 01:00:28;;;;;;;21.4;16;;;;;;;;;;;;;
2019/07/12 01:02:53;;;;;;;19.8;17.7;;;;;;;;;;;;;
2019/07/12 01:05:18;;;;;;;19.7;17.4;;;;;;;;;;;;;
2019/07/12 01:07:43;;;;;;;21.4;16.9;;;;;;;;;;;;;
2019/07/12 01:10:08;;;;;;;22.1;17.9;;;;;;;;;;;;;
2019/07/12 01:12:33;;;;;;;27.9;19.2;;;;;;;;;;;;;
2019/07/12 01:14:58;;;;;;;25.5;18.8;;;;;;;;;;;;;
2019/07/12 01:17:24;;;;;;;22.7;19.1;;;;;;;;;;;;;
2019/07/12 01:19:49;;;;;;;20.4;18.2;;;;;;;;;;;;;
2019/07/12 01:22:14;;;;;;;19.9;17.9;;;;;;;;;;;;;
2019/07/12 01:24:39;;;;;;;21.4;19.2;;;;;;;;;;;;;
2019/07/12 01:27:04;;;;;;;27.5;20.4;;;;;;;;;;;;;
2019/07/12 01:29:29;;;;;;;24.3;19.3;;;;;;;;;;;;;
2019/07/12 01:31:54;;;;;;;21.5;19.2;;;;;;;;;;;;;
2019/07/12 01:34:19;;;;;;;22.5;19.7;;;;;;;;;;;;;
2019/07/12 01:36:44;;;;;;;26.7;20.1;;;;;;;;;;;;;
2019/07/12 01:39:09;;;;;;;20.8;18.1;;;;;;;;;;;;;
2019/07/12 01:41:34;;;;;;;18.8;16.8;;;;;;;;;;;;;
2019/07/12 01:43:59;;;;;;;20.9;17.8;;;;;;;;;;;;;
2019/07/12 01:46:25;;;;;;;19.9;17.6;;;;;;;;;;;;;
2019/07/12 01:48:50;;;;;;;20.3;16.8;;;;;;;;;;;;;
2019/07/12 01:51:15;;;;;;;20.2;18;;;;;;;;;;;;;
2019/07/12 01:53:40;;;;;;;22;17;;;;;;;;;;;;;
2019/07/12 01:56:05;;;;;;;20.6;18.2;;;;;;;;;;;;;
2019/07/12 01:58:30;;;;;;;19.6;17.5;;;;;;;;;;;;;
2019/07/12 02:00:55;;;;;;;20.5;18.4;;;;;;;;;;;;;
2019/07/12 02:03:20;;;;;;;19.8;17.3;;;;;;;;;;;;;
2019/07/12 02:05:45;;;;;;;20.1;17.4;;;;;;;;;;;;;
2019/07/12 02:08:10;;;;;;;22.8;17;;;;;;;;;;;;;
2019/07/12 02:10:36;;;;;;;20.9;17.4;;;;;;;;;;;;;
2019/07/12 02:13:01;;;;;;;22.9;17.8;;;;;;;;;;;;;
2019/07/12 02:15:26;;;;;;;23.4;18.1;;;;;;;;;;;;;
2019/07/12 02:17:51;;;;;;;20;17.9;;;;;;;;;;;;;
2019/07/12 02:20:16;;;;;;;21.3;17.5;;;;;;;;;;;;;
2019/07/12 02:22:41;;;;;;;17.9;16;;;;;;;;;;;;;
2019/07/12 02:25:06;;;;;;;20.4;16.4;;;;;;;;;;;;;
2019/07/12 02:27:31;;;;;;;18.5;16.5;;;;;;;;;;;;;
2019/07/12 02:29:56;;;;;;;18.3;16.4;;;;;;;;;;;;;
2019/07/12 02:32:22;;;;;;;17.2;14.6;;;;;;;;;;;;;
2019/07/12 02:34:47;;;;;;;21.9;17.1;;;;;;;;;;;;;
2019/07/12 02:37:12;;;;;;;22.1;16.5;;;;;;;;;;;;;
2019/07/12 02:39:37;;;;;;;17.8;15.9;;;;;;;;;;;;;
2019/07/12 02:42:02;;;;;;;18.6;14.8;;;;;;;;;;;;;
2019/07/12 02:44:27;;;;;;;16.7;15;;;;;;;;;;;;;
2019/07/12 02:46:52;;;;;;;17;15.2;;;;;;;;;;;;;
2019/07/12 02:49:17;;;;;;;21.3;15.5;;;;;;;;;;;;;
2019/07/12 02:51:42;;;;;;;17.2;15.4;;;;;;;;;;;;;
2019/07/12 02:54:07;;;;;;;18.7;16.1;;;;;;;;;;;;;
2019/07/12 02:56:32;;;;;;;16.5;14.8;;;;;;;;;;;;;
2019/07/12 02:58:57;;;;;;;16.5;13.3;;;;;;;;;;;;;
2019/07/12 03:01:22;;;;;;;16.9;15.1;;;;;;;;;;;;;
2019/07/12 03:03:47;;;;;;;16.4;13.9;;;;;;;;;;;;;
2019/07/12 03:06:13;;;;;;;16.6;13.8;;;;;;;;;;;;;
2019/07/12 03:08:38;;;;;;;16.1;14.3;;;;;;;;;;;;;
2019/07/12 03:11:03;;;;;;;15.9;13.9;;;;;;;;;;;;;
2019/07/12 03:13:28;;;;;;;17.2;13.9;;;;;;;;;;;;;
2019/07/12 03:15:53;;;;;;;16.3;14.1;;;;;;;;;;;;;
2019/07/12 03:18:18;;;;;;;15.6;13.7;;;;;;;;;;;;;
2019/07/12 03:20:44;;;;;;;18.7;14.9;;;;;;;;;;;;;
2019/07/12 03:23:09;;;;;;;18.1;15.2;;;;;;;;;;;;;
2019/07/12 03:25:34;;;;;;;14.6;13;;;;;;;;;;;;;
2019/07/12 03:27:59;;;;;;;16.9;14.6;;;;;;;;;;;;;
2019/07/12 03:30:24;;;;;;;17.7;13.9;;;;;;;;;;;;;
2019/07/12 03:32:49;;;;;;;14.8;13.2;;;;;;;;;;;;;
2019/07/12 03:35:14;;;;;;;16.1;13.8;;;;;;;;;;;;;
2019/07/12 03:37:39;;;;;;;16;13.6;;;;;;;;;;;;;
2019/07/12 03:40:04;;;;;;;15.7;14;;;;;;;;;;;;;
2019/07/12 03:42:29;;;;;;;17.7;14.1;;;;;;;;;;;;;
2019/07/12 03:44:55;;;;;;;18.9;15.6;;;;;;;;;;;;;
2019/07/12 03:47:20;;;;;;;18.4;14.9;;;;;;;;;;;;;
2019/07/12 03:49:45;;;;;;;16.7;13.7;;;;;;;;;;;;;
2019/07/12 03:52:10;;;;;;;17.2;13.6;;;;;;;;;;;;;
2019/07/12 03:54:35;;;;;;;15.8;13.9;;;;;;;;;;;;;
2019/07/12 03:57:00;;;;;;;15.3;12.9;;;;;;;;;;;;;
2019/07/12 03:59:25;;;;;;;16.4;13;;;;;;;;;;;;;
2019/07/12 04:02:27;;;;;;;19.1;13.7;;;;;;;;;;;;;
2019/07/12 04:04:52;;;;;;;17.3;13.4;;;;;;;;;;;;;
2019/07/12 04:07:17;;;;;;;16.5;13.9;;;;;;;;;;;;;
2019/07/12 04:09:42;;;;;;;16;12.9;;;;;;;;;;;;;
2019/07/12 04:12:07;;;;;;;17.6;13.8;;;;;;;;;;;;;
2019/07/12 04:14:32;;;;;;;17.9;13.8;;;;;;;;;;;;;
2019/07/12 04:16:57;;;;;;;14.4;12.8;;;;;;;;;;;;;
2019/07/12 04:19:22;;;;;;;16.8;13.2;;;;;;;;;;;;;
2019/07/12 04:21:47;;;;;;;16.1;13.5;;;;;;;;;;;;;
2019/07/12 04:24:12;;;;;;;19.6;13.7;;;;;;;;;;;;;
2019/07/12 04:26:38;;;;;;;17.5;14.2;;;;;;;;;;;;;
2019/07/12 04:29:03;;;;;;;16.9;13.7;;;;;;;;;;;;;
2019/07/12 04:33:05;;;;;;;17.4;14.5;;;;;;;;;;;;;
2019/07/12 04:35:31;;;;;;;18.9;13.6;;;;;;;;;;;;;
2019/07/12 04:37:56;;;;;;;17.4;13.9;;;;;;;;;;;;;
2019/07/12 04:40:21;;;;;;;17;13.2;;;;;;;;;;;;;
2019/07/12 04:42:46;;;;;;;14.1;12.1;;;;;;;;;;;;;
2019/07/12 04:45:11;;;;;;;16.6;13.3;;;;;;;;;;;;;
2019/07/12 04:47:36;;;;;;;15.9;12.3;;;;;;;;;;;;;
2019/07/12 04:50:02;;;;;;;16.6;13;;;;;;;;;;;;;
2019/07/12 04:52:27;;;;;;;15.8;12.5;;;;;;;;;;;;;
2019/07/12 04:54:52;;;;;;;15.8;13.3;;;;;;;;;;;;;
2019/07/12 04:57:17;;;;;;;15.9;12.5;;;;;;;;;;;;;
2019/07/12 04:59:42;;;;;;;15.9;12.8;;;;;;;;;;;;;
2019/07/12 05:02:07;;;;;;;16.7;13;;;;;;;;;;;;;
2019/07/12 05:04:32;;;;;;;17.2;13.5;;;;;;;;;;;;;
2019/07/12 05:06:57;;;;;;;15.7;13.3;;;;;;;;;;;;;
2019/07/12 05:09:23;;;;;;;18.2;13.5;;;;;;;;;;;;;
2019/07/12 05:11:48;;;;;;;18;12.8;;;;;;;;;;;;;
2019/07/12 05:14:13;;;;;;;16.6;13.1;;;;;;;;;;;;;
2019/07/12 05:16:38;;;;;;;20.8;14.4;;;;;;;;;;;;;
2019/07/12 05:19:03;;;;;;;23.8;15;;;;;;;;;;;;;
2019/07/12 05:21:28;;;;;;;18.5;13.6;;;;;;;;;;;;;
2019/07/12 05:23:53;;;;;;;17.2;12.6;;;;;;;;;;;;;
2019/07/12 05:26:18;;;;;;;14.7;11.2;;;;;;;;;;;;;
2019/07/12 05:28:43;;;;;;;17.5;11;;;;;;;;;;;;;
2019/07/12 05:31:09;;;;;;;11.7;8.9;;;;;;;;;;;;;
2019/07/12 05:33:34;;;;;;;14.1;10.4;;;;;;;;;;;;;
2019/07/12 05:35:59;;;;;;;11.4;9.5;;;;;;;;;;;;;
2019/07/12 05:38:24;;;;;;;13.2;10.1;;;;;;;;;;;;;
2019/07/12 05:40:49;;;;;;;13.9;9.4;;;;;;;;;;;;;
2019/07/12 05:43:14;;;;;;;14.7;10.5;;;;;;;;;;;;;
2019/07/12 05:45:39;;;;;;;11.6;8.9;;;;;;;;;;;;;
2019/07/12 05:48:04;;;;;;;11.5;8.1;;;;;;;;;;;;;
2019/07/12 05:50:29;;;;;;;10.2;7.4;;;;;;;;;;;;;
2019/07/12 05:52:55;;;;;;;9.3;7.9;;;;;;;;;;;;;
2019/07/12 05:55:20;;;;;;;9.1;7.1;;;;;;;;;;;;;
2019/07/12 05:57:45;;;;;;;10.2;7.1;;;;;;;;;;;;;
2019/07/12 06:00:10;;;;;;;10.1;6.3;;;;;;;;;;;;;
2019/07/12 06:02:35;;;;;;;8.4;7;;;;;;;;;;;;;
2019/07/12 06:05:00;;;;;;;9.9;6.3;;;;;;;;;;;;;
2019/07/12 06:07:26;;;;;;;9.3;6;;;;;;;;;;;;;
2019/07/12 06:09:51;;;;;;;11.1;6;;;;;;;;;;;;;
2019/07/12 06:12:16;;;;;;;6.4;5.4;;;;;;;;;;;;;
2019/07/12 06:14:41;;;;;;;7.8;5.5;;;;;;;;;;;;;
2019/07/12 06:17:06;;;;;;;7.2;5.7;;;;;;;;;;;;;
2019/07/12 06:19:31;;;;;;;8.2;6.2;;;;;;;;;;;;;
2019/07/12 06:21:56;;;;;;;8.9;5.9;;;;;;;;;;;;;
2019/07/12 06:24:21;;;;;;;9.5;6.3;;;;;;;;;;;;;
2019/07/12 06:26:46;;;;;;;7.7;6;;;;;;;;;;;;;
2019/07/12 06:29:12;;;;;;;9.2;6;;;;;;;;;;;;;
2019/07/12 06:31:37;;;;;;;9.7;6.5;;;;;;;;;;;;;
2019/07/12 06:34:02;;;;;;;10;6.6;;;;;;;;;;;;;
2019/07/12 06:36:27;;;;;;;9.4;6.7;;;;;;;;;;;;;
2019/07/12 06:38:52;;;;;;;8.2;7;;;;;;;;;;;;;
2019/07/12 06:41:17;;;;;;;10.7;7.1;;;;;;;;;;;;;
2019/07/12 06:43:42;;;;;;;9.6;6.7;;;;;;;;;;;;;
2019/07/12 06:46:07;;;;;;;10.1;6.7;;;;;;;;;;;;;
2019/07/12 06:48:32;;;;;;;10.6;6;;;;;;;;;;;;;
2019/07/12 06:50:58;;;;;;;10.3;6.1;;;;;;;;;;;;;
2019/07/12 06:53:23;;;;;;;11.3;6.2;;;;;;;;;;;;;
2019/07/12 06:55:48;;;;;;;8.9;5.8;;;;;;;;;;;;;
2019/07/12 06:58:13;;;;;;;7.1;5.1;;;;;;;;;;;;;
2019/07/12 07:00:38;;;;;;;9.1;5.6;;;;;;;;;;;;;
2019/07/12 07:03:03;;;;;;;6.1;5.2;;;;;;;;;;;;;
2019/07/12 07:05:28;;;;;;;8.5;5.2;;;;;;;;;;;;;
2019/07/12 07:07:53;;;;;;;6.2;4.5;;;;;;;;;;;;;
2019/07/12 07:10:19;;;;;;;6;4.8;;;;;;;;;;;;;
2019/07/12 07:12:44;;;;;;;5.9;4.6;;;;;;;;;;;;;
2019/07/12 07:15:09;;;;;;;7.8;4.6;;;;;;;;;;;;;
2019/07/12 07:17:34;;;;;;;6.3;4.6;;;;;;;;;;;;;
2019/07/12 07:19:59;;;;;;;5.9;4.7;;;;;;;;;;;;;
2019/07/12 07:22:24;;;;;;;6.2;4.9;;;;;;;;;;;;;
2019/07/12 07:24:49;;;;;;;6.6;4.8;;;;;;;;;;;;;
2019/07/12 07:27:14;;;;;;;5.7;4.5;;;;;;;;;;;;;
2019/07/12 07:29:39;;;;;;;7.5;4.5;;;;;;;;;;;;;
2019/07/12 07:32:04;;;;;;;5.3;4.5;;;;;;;;;;;;;
2019/07/12 07:34:29;;;;;;;6.3;4.8;;;;;;;;;;;;;
2019/07/12 07:36:54;;;;;;;5.7;4.1;;;;;;;;;;;;;
2019/07/12 07:39:19;;;;;;;5.6;4.6;;;;;;;;;;;;;
2019/07/12 07:41:44;;;;;;;5.2;4.7;;;;;;;;;;;;;
2019/07/12 07:44:10;;;;;;;7.2;4.5;;;;;;;;;;;;;
2019/07/12 07:46:35;;;;;;;8;4.9;;;;;;;;;;;;;
2019/07/12 07:49:00;;;;;;;6.6;4.5;;;;;;;;;;;;;
2019/07/12 07:51:25;;;;;;;7.8;4.2;;;;;;;;;;;;;
2019/07/12 07:53:50;;;;;;;5.8;4.1;;;;;;;;;;;;;
2019/07/12 07:56:16;;;;;;;5.9;4;;;;;;;;;;;;;
2019/07/12 07:58:41;;;;;;;4.8;4.3;;;;;;;;;;;;;
2019/07/12 08:01:06;;;;;;;5.7;4.1;;;;;;;;;;;;;
2019/07/12 08:03:31;;;;;;;5.5;3.9;;;;;;;;;;;;;
2019/07/12 08:05:56;;;;;;;6;3.7;;;;;;;;;;;;;
2019/07/12 08:08:21;;;;;;;5.2;4;;;;;;;;;;;;;
2019/07/12 08:10:46;;;;;;;4.2;3.8;;;;;;;;;;;;;
2019/07/12 08:13:11;;;;;;;5.4;3.7;;;;;;;;;;;;;
